Norwegian Jade — C6WK7 — position and weather

sailwx.info

Track history (hours):
 
Tides and Currents Weather Stations Pressure Air Temp Water Temp Dewpoint Dewpoint Depression Visibility Wind Speed Wind Dir Waves Ship Positions

Norwegian Jade

Last reported at 2017-Feb-22 22:33 UTC. Time now 2017-Feb-24 08:21 UTC.
Position N 20°28' W 087°01'.

Length 294 m; draft 8.6 m.

Type: Passenger vessel. MMSI: 308416000.

Date/timePositionNaut miles runAvg speedWind from/ knotsBaromVisibWave heightAir tempDewpointWater temp
2017-Feb-22 22:33N 20°28' W 087°01'4 4.1
2017-Feb-22 21:31N 20°31' W 086°57'0 0.0
2017-Feb-22 20:31N 20°31' W 086°57'0 0.0
2017-Feb-22 19:34N 20°31' W 086°57'0 0.0
2017-Feb-22 18:30N 20°31' W 086°57'0 0.0
2017-Feb-22 17:30N 20°31' W 086°57'0 0.0
2017-Feb-22 16:32N 20°31' W 086°57'0 0.0
2017-Feb-22 15:29N 20°31' W 086°57'0 0.0
2017-Feb-22 14:31N 20°31' W 086°57'0 0.0
2017-Feb-22 13:31N 20°31' W 086°57'0 0.0
2017-Feb-22 12:33N 20°31' W 086°57'0 0.4
2017-Feb-22 11:34N 20°31' W 086°57'6 5.8
2017-Feb-22 10:33N 20°36' W 086°55'95 7.0
2017-Feb-21 21:00N 22°00' W 086°06'8 8.2 140 / 161013.027.0 26.0 27.0
2017-Feb-21 20:00N 22°06' W 086°00'187 8.1 130 / 131014.0 5.4 26.0 27.0
2017-Feb-20 21:00N 24°54' W 084°30'51 8.9 120 / 141018.027.0 24.0 27.0
2017-Feb-20 15:15N 25°41' W 084°08'10 8.9
2017-Feb-20 14:04N 25°51' W 084°03'5 8.8
2017-Feb-20 13:33N 25°55' W 084°01'9 8.8
2017-Feb-20 12:30N 26°03' W 083°57'37 9.0
2017-Feb-20 08:23N 26°36' W 083°38'12 9.3
2017-Feb-20 07:05N 26°47' W 083°32'5 9.0
2017-Feb-20 06:34N 26°52' W 083°30'9 9.3
2017-Feb-20 05:33N 27°00' W 083°26'10 9.2
2017-Feb-20 04:31N 27°09' W 083°21'9 9.3
2017-Feb-20 03:33N 27°16' W 083°16'9 9.4
2017-Feb-20 02:33N 27°25' W 083°11'9 9.2
2017-Feb-20 01:33N 27°33' W 083°06'1212.2
2017-Feb-20 00:33N 27°36' W 082°53'1414.2
2017-Feb-19 23:33N 27°38' W 082°37'1313.1
2017-Feb-19 22:34N 27°48' W 082°28'8 8.1
2017-Feb-19 21:33N 27°56' W 082°27'0 0.3
2017-Feb-19 20:31N 27°57' W 082°27'0 0.0
2017-Feb-19 19:31N 27°57' W 082°27'0 0.0
2017-Feb-19 18:33N 27°57' W 082°27'0 0.0
2017-Feb-19 17:33N 27°57' W 082°27'0 0.0
2017-Feb-19 16:32N 27°57' W 082°27'0 0.0
2017-Feb-19 15:32N 27°57' W 082°27'0 0.0
2017-Feb-19 14:29N 27°57' W 082°27'0 0.0
2017-Feb-19 13:31N 27°57' W 082°27'0 0.0
2017-Feb-19 12:31N 27°57' W 082°27'0 0.1
2017-Feb-19 11:33N 27°57' W 082°27'6 6.3
2017-Feb-19 10:33N 27°50' W 082°27'1313.0
2017-Feb-19 09:34N 27°40' W 082°36'1914.3
2017-Feb-19 08:15N 27°36' W 082°56'1012.5
2017-Feb-19 07:26N 27°33' W 083°07'1213.4
2017-Feb-19 06:33N 27°22' W 083°13'33817.3
2017-Feb-18 11:00N 22°12' W 085°42'1918.8 150 / 291013.0 5.4 25.0 27.0
2017-Feb-18 10:00N 21°54' W 085°48'6 0.2 150 / 321012.0 5.4 25.0 27.0
2017-Feb-16 23:00N 21°54' W 085°54'27718.5 350 / 121017.0 5.4 24.0 27.0
2017-Feb-16 08:00N 26°06' W 083°48'11115.0 310 / 381013.0 20.0 25.0
2017-Feb-16 00:33N 27°38' W 082°38'1414.3
2017-Feb-15 23:33N 27°49' W 082°27'8 7.9
2017-Feb-15 22:33N 27°57' W 082°27'0 0.0
2017-Feb-15 21:33N 27°57' W 082°27'0 0.0
2017-Feb-15 20:33N 27°57' W 082°27'0 0.0
2017-Feb-15 19:33N 27°57' W 082°27'0 0.0
2017-Feb-15 18:29N 27°57' W 082°27'0 0.0
2017-Feb-15 17:32N 27°57' W 082°27'0 0.0
2017-Feb-15 16:31N 27°57' W 082°27'0 0.0
2017-Feb-15 15:31N 27°57' W 082°27'0 0.0
2017-Feb-15 14:33N 27°57' W 082°27'0 0.0
2017-Feb-15 13:33N 27°57' W 082°27'0 0.0
2017-Feb-15 12:33N 27°57' W 082°27'0 0.0
2017-Feb-15 11:32N 27°57' W 082°27'1 1.0
2017-Feb-15 10:33N 27°56' W 082°27'9 9.1
2017-Feb-15 09:33N 27°47' W 082°31'  
Track history (hours):
 
Tides and Currents Weather Stations Pressure Air Temp Water Temp Dewpoint Dewpoint Depression Visibility Wind Speed Wind Dir Waves Ship Positions

Norwegian Jade

Last reported at 2017-Feb-22 22:33 UTC. Time now 2017-Feb-24 08:21 UTC.
Position N 20°28' W 087°01'.

Length 294 m; draft 8.6 m.

Type: Passenger vessel. MMSI: 308416000.

Date/timePositionNaut miles runAvg speedWind from/ knotsBaromVisibWave heightAir tempDewpointWater temp
2017-Feb-22 22:33N 20°28' W 087°01'4 4.1
2017-Feb-22 21:31N 20°31' W 086°57'0 0.0
2017-Feb-22 20:31N 20°31' W 086°57'0 0.0
2017-Feb-22 19:34N 20°31' W 086°57'0 0.0
2017-Feb-22 18:30N 20°31' W 086°57'0 0.0
2017-Feb-22 17:30N 20°31' W 086°57'0 0.0
2017-Feb-22 16:32N 20°31' W 086°57'0 0.0
2017-Feb-22 15:29N 20°31' W 086°57'0 0.0
2017-Feb-22 14:31N 20°31' W 086°57'0 0.0
2017-Feb-22 13:31N 20°31' W 086°57'0 0.0
2017-Feb-22 12:33N 20°31' W 086°57'0 0.4
2017-Feb-22 11:34N 20°31' W 086°57'6 5.8
2017-Feb-22 10:33N 20°36' W 086°55'95 7.0
2017-Feb-21 21:00N 22°00' W 086°06'8 8.2 140 / 161013.027.0 26.0 27.0
2017-Feb-21 20:00N 22°06' W 086°00'187 8.1 130 / 131014.0 5.4 26.0 27.0
2017-Feb-20 21:00N 24°54' W 084°30'51 8.9 120 / 141018.027.0 24.0 27.0
2017-Feb-20 15:15N 25°41' W 084°08'10 8.9
2017-Feb-20 14:04N 25°51' W 084°03'5 8.8
2017-Feb-20 13:33N 25°55' W 084°01'9 8.8
2017-Feb-20 12:30N 26°03' W 083°57'37 9.0
2017-Feb-20 08:23N 26°36' W 083°38'12 9.3
2017-Feb-20 07:05N 26°47' W 083°32'5 9.0
2017-Feb-20 06:34N 26°52' W 083°30'9 9.3
2017-Feb-20 05:33N 27°00' W 083°26'10 9.2
2017-Feb-20 04:31N 27°09' W 083°21'9 9.3
2017-Feb-20 03:33N 27°16' W 083°16'9 9.4
2017-Feb-20 02:33N 27°25' W 083°11'9 9.2
2017-Feb-20 01:33N 27°33' W 083°06'1212.2
2017-Feb-20 00:33N 27°36' W 082°53'1414.2
2017-Feb-19 23:33N 27°38' W 082°37'1313.1
2017-Feb-19 22:34N 27°48' W 082°28'8 8.1
2017-Feb-19 21:33N 27°56' W 082°27'0 0.3
2017-Feb-19 20:31N 27°57' W 082°27'0 0.0
2017-Feb-19 19:31N 27°57' W 082°27'0 0.0
2017-Feb-19 18:33N 27°57' W 082°27'0 0.0
2017-Feb-19 17:33N 27°57' W 082°27'0 0.0
2017-Feb-19 16:32N 27°57' W 082°27'0 0.0
2017-Feb-19 15:32N 27°57' W 082°27'0 0.0
2017-Feb-19 14:29N 27°57' W 082°27'0 0.0
2017-Feb-19 13:31N 27°57' W 082°27'0 0.0
2017-Feb-19 12:31N 27°57' W 082°27'0 0.1
2017-Feb-19 11:33N 27°57' W 082°27'6 6.3
2017-Feb-19 10:33N 27°50' W 082°27'1313.0
2017-Feb-19 09:34N 27°40' W 082°36'1914.3
2017-Feb-19 08:15N 27°36' W 082°56'1012.5
2017-Feb-19 07:26N 27°33' W 083°07'1213.4
2017-Feb-19 06:33N 27°22' W 083°13'33817.3
2017-Feb-18 11:00N 22°12' W 085°42'1918.8 150 / 291013.0 5.4 25.0 27.0
2017-Feb-18 10:00N 21°54' W 085°48'6 0.2 150 / 321012.0 5.4 25.0 27.0
2017-Feb-16 23:00N 21°54' W 085°54'27718.5 350 / 121017.0 5.4 24.0 27.0
2017-Feb-16 08:00N 26°06' W 083°48'11115.0 310 / 381013.0 20.0 25.0
2017-Feb-16 00:33N 27°38' W 082°38'1414.3
2017-Feb-15 23:33N 27°49' W 082°27'8 7.9
2017-Feb-15 22:33N 27°57' W 082°27'0 0.0
2017-Feb-15 21:33N 27°57' W 082°27'0 0.0
2017-Feb-15 20:33N 27°57' W 082°27'0 0.0
2017-Feb-15 19:33N 27°57' W 082°27'0 0.0
2017-Feb-15 18:29N 27°57' W 082°27'0 0.0
2017-Feb-15 17:32N 27°57' W 082°27'0 0.0
2017-Feb-15 16:31N 27°57' W 082°27'0 0.0
2017-Feb-15 15:31N 27°57' W 082°27'0 0.0
2017-Feb-15 14:33N 27°57' W 082°27'0 0.0
2017-Feb-15 13:33N 27°57' W 082°27'0 0.0
2017-Feb-15 12:33N 27°57' W 082°27'0 0.0
2017-Feb-15 11:32N 27°57' W 082°27'1 1.0
2017-Feb-15 10:33N 27°56' W 082°27'9 9.1
2017-Feb-15 09:33N 27°47' W 082°31'  

Dump ship's entire track history